CheckWX is a tool to help pilots better visualize weather data.  It is not intended as a substitute for an official pre-flight weather briefing.

18:40:08 UTC

KLSE TAF
La Crosse Regional Airport
La Crosse, Wisconsin, USA
KLSE 171730Z 1718/1818 05007KT 1 1/2SM -SN OVC020 TEMPO 1718/1720 1/2SM SN OVC015 FM180200 02005KT 5SM -SN OVC020 FM180400 36005KT P6SM OVC025 FM181100 35005KT P6SM BKN040 FM181600 34005KT P6SM BKN200

Feb-17@
18:00 UTC

Feb-17 @ 18:00 UTC

Feb-18@
02:00 UTC

Feb-18 @ 02:00 UTC

KLSE 171730Z 1718/1818 05007KT 1 1/2SM -SN OVC020
Wind
  • 050° at 7 KTS
Visibility
1 1/2 SM
Conditions
Light Snow
Cloud Levels
  • Overcast at 2,000' AGL

Feb-17@
18:00 UTC

Feb-17 @ 18:00 UTC

Feb-17@
20:00 UTC

Feb-17 @ 20:00 UTC

TEMPO 1718/1720 1/2SM SN OVC015

Temporary

TemporaryChanges expected for less than half the time period

Visibility
1/2 SM
Conditions
Snow
Cloud Levels
  • Overcast at 1,500' AGL

Feb-18@
02:00 UTC

Feb-18 @ 02:00 UTC

Feb-18@
04:00 UTC

Feb-18 @ 04:00 UTC

FM180200 02005KT 5SM -SN OVC020

From

FromStandard forecast or significant change

Wind
  • 020° at 5 KTS
Visibility
5 SM
Conditions
Light Snow
Cloud Levels
  • Overcast at 2,000' AGL

Feb-18@
04:00 UTC

Feb-18 @ 04:00 UTC

Feb-18@
11:00 UTC

Feb-18 @ 11:00 UTC

FM180400 36005KT P6SM OVC025

From

FromStandard forecast or significant change

Wind
  • 360° at 5 KTS
Visibility
Greater than 6 SM
Cloud Levels
  • Overcast at 2,500' AGL

Feb-18@
11:00 UTC

Feb-18 @ 11:00 UTC

Feb-18@
16:00 UTC

Feb-18 @ 16:00 UTC

FM181100 35005KT P6SM BKN040

From

FromStandard forecast or significant change

Wind
  • 350° at 5 KTS
Visibility
Greater than 6 SM
Cloud Levels
  • Broken at 4,000' AGL

Feb-18@
16:00 UTC

Feb-18 @ 16:00 UTC

Feb-18@
18:00 UTC

Feb-18 @ 18:00 UTC

FM181600 34005KT P6SM BKN200

From

FromStandard forecast or significant change

Wind
  • 340° at 5 KTS
Visibility
Greater than 6 SM
Cloud Levels
  • Broken at 20,000' AGL